createdAt,value
2019-01-04T00:02:02.901Z,1.06
2019-01-04T00:04:30.167Z,1.31
2019-01-04T00:06:57.309Z,1.44
2019-01-04T00:09:24.327Z,1.25
2019-01-04T00:11:51.315Z,1.19
2019-01-04T00:14:18.360Z,1.19
2019-01-04T00:16:46.243Z,1.12
2019-01-04T00:19:14.563Z,1.19
2019-01-04T00:21:41.653Z,1.44
2019-01-04T00:24:08.593Z,1.31
2019-01-04T00:26:35.555Z,1.50
2019-01-04T00:29:02.558Z,1.19
2019-01-04T00:31:29.522Z,1.25
2019-01-04T00:33:56.829Z,1.37
2019-01-04T00:36:25.666Z,1.37
2019-01-04T00:38:52.716Z,1.56
2019-01-04T00:41:19.736Z,1.44
2019-01-04T00:43:46.987Z,1.56
2019-01-04T00:46:14.985Z,1.37
2019-01-04T00:48:42.006Z,1.44
2019-01-04T00:51:09.592Z,1.37
2019-01-04T00:53:36.622Z,1.44
2019-01-04T00:58:19.757Z,1.69
2019-01-04T01:00:56.859Z,1.62
2019-01-04T01:03:38.937Z,1.69
2019-01-04T01:06:17.655Z,1.62
2019-01-04T01:09:11.269Z,1.69
2019-01-04T01:12:50.715Z,1.69
2019-01-04T01:15:28.031Z,1.75
2019-01-04T01:18:05.273Z,1.50
2019-01-04T01:20:44.684Z,1.50
2019-01-04T01:23:26.082Z,1.50
2019-01-04T01:26:11.394Z,1.69
2019-01-04T01:28:49.452Z,1.50
2019-01-04T01:31:33.346Z,1.62
2019-01-04T01:34:11.852Z,1.69
2019-01-04T01:36:52.206Z,1.69
2019-01-04T01:39:40.314Z,1.81
2019-01-04T01:42:54.619Z,1.69
2019-01-04T01:46:37.935Z,1.62
2019-01-04T01:49:31.099Z,1.62
2019-01-04T01:52:03.930Z,1.75
2019-01-04T01:54:38.254Z,1.75
2019-01-04T01:57:05.201Z,1.75
2019-01-04T01:59:32.251Z,1.50
2019-01-04T02:01:59.237Z,1.87
2019-01-04T02:04:26.176Z,1.81
2019-01-04T02:06:53.252Z,1.87
2019-01-04T02:09:20.170Z,1.75
2019-01-04T02:11:47.118Z,1.69
2019-01-04T02:14:14.086Z,1.56
2019-01-04T02:16:41.020Z,1.62
2019-01-04T02:19:08.034Z,1.69
2019-01-04T02:21:34.997Z,1.81
2019-01-04T02:24:01.942Z,1.87
2019-01-04T02:26:28.919Z,1.75
2019-01-04T02:28:55.963Z,1.81
2019-01-04T02:31:22.917Z,1.56
2019-01-04T02:33:49.829Z,1.62
2019-01-04T02:36:16.788Z,1.62
2019-01-04T02:38:43.763Z,2.00
2019-01-04T02:41:10.763Z,2.00
2019-01-04T02:43:37.709Z,2.00
2019-01-04T02:46:04.676Z,1.87
2019-01-04T02:48:31.667Z,1.87
2019-01-04T02:50:58.759Z,1.94
2019-01-04T02:53:25.733Z,1.75
2019-01-04T02:55:52.665Z,1.69
2019-01-04T02:58:19.696Z,1.69
2019-01-04T03:00:46.671Z,1.56
2019-01-04T03:03:13.682Z,1.75
2019-01-04T03:05:40.612Z,1.56
2019-01-04T03:08:07.583Z,1.56
2019-01-04T03:10:34.541Z,1.75
2019-01-04T03:13:01.497Z,1.75
2019-01-04T03:15:28.459Z,1.69
2019-01-04T03:17:55.436Z,1.75
2019-01-04T03:20:22.366Z,1.56
2019-01-04T03:22:49.353Z,1.94
2019-01-04T03:25:16.294Z,1.69
2019-01-04T03:27:43.301Z,1.62
2019-01-04T03:30:10.239Z,1.81
2019-01-04T03:32:37.229Z,1.81
2019-01-04T03:35:04.485Z,1.87
2019-01-04T03:37:32.249Z,1.87
2019-01-04T03:39:59.199Z,1.75
2019-01-04T03:42:26.170Z,1.94
2019-01-04T03:44:53.076Z,1.87
2019-01-04T03:47:20.051Z,1.62
2019-01-04T03:49:47.093Z,1.75
2019-01-04T03:52:14.141Z,1.81
2019-01-04T03:54:41.084Z,2.06
2019-01-04T03:57:08.043Z,1.94
2019-01-04T03:59:34.944Z,1.75
2019-01-04T04:02:01.982Z,1.56
2019-01-04T04:04:28.937Z,1.69
2019-01-04T04:06:55.877Z,1.69
2019-01-04T04:09:22.828Z,2.00
2019-01-04T04:11:49.796Z,1.62
2019-01-04T04:14:16.797Z,1.87
2019-01-04T04:16:43.753Z,1.81
2019-01-04T04:19:10.715Z,1.75
2019-01-04T04:21:37.763Z,1.75
2019-01-04T04:24:04.724Z,1.75
2019-01-04T04:26:31.673Z,2.06
2019-01-04T04:28:58.702Z,1.75
2019-01-04T04:31:25.656Z,1.81
2019-01-04T04:33:52.714Z,1.94
2019-01-04T04:36:19.705Z,1.87
2019-01-04T04:38:46.656Z,1.87
2019-01-04T04:41:13.598Z,1.81
2019-01-04T04:43:40.530Z,2.06
2019-01-04T04:46:07.504Z,2.12
2019-01-04T04:48:34.486Z,2.19
2019-01-04T04:51:01.413Z,2.19
2019-01-04T04:53:28.326Z,2.12
2019-01-04T04:55:55.280Z,2.12
2019-01-04T04:58:22.262Z,2.06
2019-01-04T05:00:49.240Z,2.19
2019-01-04T05:03:16.683Z,1.75
2019-01-04T05:05:43.649Z,1.81
2019-01-04T05:08:10.581Z,1.69
2019-01-04T05:10:37.559Z,1.62
2019-01-04T05:13:04.808Z,1.87
2019-01-04T05:15:31.794Z,2.00
2019-01-04T05:17:58.960Z,1.94
2019-01-04T05:20:26.111Z,1.94
2019-01-04T05:22:53.070Z,2.00
2019-01-04T05:25:20.048Z,1.94
2019-01-04T05:27:47.051Z,1.87
2019-01-04T05:30:14.013Z,1.69
2019-01-04T05:32:40.958Z,1.75
2019-01-04T05:35:07.916Z,1.69
2019-01-04T05:37:34.903Z,1.69
2019-01-04T05:40:01.880Z,1.81
2019-01-04T05:42:28.841Z,1.87
2019-01-04T05:44:55.817Z,1.75
2019-01-04T05:47:22.784Z,1.50
2019-01-04T05:49:49.728Z,1.62
2019-01-04T05:52:16.653Z,1.75
2019-01-04T05:54:43.607Z,1.87
2019-01-04T05:57:11.260Z,1.62
2019-01-04T05:59:38.260Z,1.75
2019-01-04T06:02:05.229Z,1.69
2019-01-04T06:04:32.178Z,1.56
2019-01-04T06:06:59.114Z,1.62
2019-01-04T06:09:26.041Z,1.56
2019-01-04T06:11:53.001Z,1.56
2019-01-04T06:14:19.914Z,1.69
2019-01-04T06:16:46.850Z,1.81
2019-01-04T06:19:13.795Z,1.69
2019-01-04T06:21:40.703Z,1.81
2019-01-04T06:24:07.630Z,1.56
2019-01-04T06:26:34.562Z,1.81
2019-01-04T06:29:01.515Z,1.75
2019-01-04T06:31:28.711Z,1.62
2019-01-04T06:33:56.370Z,1.75
2019-01-04T06:36:23.295Z,1.81
2019-01-04T06:38:50.231Z,2.00
2019-01-04T06:41:17.165Z,2.00
2019-01-04T06:43:44.077Z,1.69
2019-01-04T06:46:11.042Z,2.00
2019-01-04T06:48:38.001Z,1.56
2019-01-04T06:51:04.931Z,1.56
2019-01-04T06:53:32.438Z,1.81
2019-01-04T06:56:02.765Z,1.56
2019-01-04T06:58:29.729Z,1.94
2019-01-04T07:00:56.707Z,2.06
2019-01-04T07:03:23.869Z,1.94
2019-01-04T07:05:50.826Z,1.87
2019-01-04T07:08:18.627Z,2.12
2019-01-04T07:10:45.573Z,1.56
2019-01-04T07:13:12.520Z,1.69
2019-01-04T07:15:39.503Z,1.87
2019-01-04T07:18:06.405Z,1.75
2019-01-04T07:20:33.326Z,1.87
2019-01-04T07:23:00.296Z,1.56
2019-01-04T07:25:27.245Z,1.56
2019-01-04T07:27:54.194Z,1.69
2019-01-04T07:30:21.207Z,1.69
2019-01-04T07:32:48.261Z,1.75
2019-01-04T07:35:15.198Z,1.81
2019-01-04T07:37:42.123Z,2.00
2019-01-04T07:40:09.121Z,1.81
2019-01-04T07:42:36.103Z,1.81
2019-01-04T07:45:03.314Z,1.81
2019-01-04T07:47:30.241Z,2.00
2019-01-04T07:49:57.958Z,1.94
2019-01-04T07:52:25.048Z,2.00
2019-01-04T07:54:51.973Z,1.81
2019-01-04T07:57:19.454Z,1.81
2019-01-04T07:59:46.392Z,1.75
2019-01-04T08:02:24.996Z,1.81
2019-01-04T08:04:52.100Z,2.12
2019-01-04T08:07:19.071Z,1.94
2019-01-04T08:09:46.050Z,1.69
2019-01-04T08:12:13.068Z,1.81
2019-01-04T08:14:40.003Z,2.06
2019-01-04T08:17:06.972Z,1.87
2019-01-04T08:19:33.919Z,1.81
2019-01-04T08:22:00.979Z,2.06
2019-01-04T08:24:27.907Z,2.00
2019-01-04T08:26:54.887Z,1.87
2019-01-04T08:29:21.850Z,2.19
2019-01-04T08:31:48.792Z,2.00
2019-01-04T08:34:15.753Z,2.06
2019-01-04T08:36:42.808Z,2.00
2019-01-04T08:39:09.810Z,1.87
2019-01-04T08:41:36.818Z,2.06
2019-01-04T08:44:06.576Z,2.06
2019-01-04T08:46:34.306Z,2.37
2019-01-04T08:49:01.212Z,2.19
2019-01-04T08:51:28.268Z,2.19
2019-01-04T08:53:56.875Z,2.12
2019-01-04T08:56:24.828Z,1.87
2019-01-04T08:58:51.799Z,2.37
2019-01-04T09:01:18.747Z,2.37
2019-01-04T09:03:45.725Z,2.37
2019-01-04T09:06:12.808Z,2.25
2019-01-04T09:08:39.775Z,2.37
2019-01-04T09:11:06.713Z,2.25
2019-01-04T09:13:34.992Z,2.56
2019-01-04T09:16:01.913Z,2.44
2019-01-04T09:18:28.903Z,2.50
2019-01-04T09:20:58.691Z,2.44
2019-01-04T09:23:25.646Z,2.37
2019-01-04T09:25:52.582Z,2.44
2019-01-04T09:28:19.530Z,2.50
2019-01-04T09:30:46.504Z,2.69
2019-01-04T09:33:13.438Z,2.62
2019-01-04T09:35:41.396Z,2.44
2019-01-04T09:38:08.556Z,2.37
2019-01-04T09:40:35.512Z,2.37
2019-01-04T09:43:02.534Z,2.50
2019-01-04T09:45:29.483Z,2.50
2019-01-04T09:47:56.423Z,2.50
2019-01-04T09:50:23.425Z,2.56
2019-01-04T09:52:50.368Z,2.44
2019-01-04T09:55:17.315Z,2.56
2019-01-04T09:57:44.396Z,2.69
2019-01-04T10:00:11.713Z,2.50
2019-01-04T10:02:38.689Z,2.56
2019-01-04T10:05:05.909Z,2.62
2019-01-04T10:07:32.869Z,2.75
2019-01-04T10:09:59.824Z,2.44
2019-01-04T10:12:26.857Z,2.31
2019-01-04T10:14:53.780Z,2.31
2019-01-04T10:17:20.728Z,2.62
2019-01-04T10:19:47.640Z,2.94
2019-01-04T10:22:14.558Z,2.75
2019-01-04T10:24:41.505Z,2.69
2019-01-04T10:27:08.457Z,2.75
2019-01-04T10:29:35.421Z,3.00
2019-01-04T10:32:02.432Z,2.87
2019-01-04T10:34:29.963Z,2.87
2019-01-04T10:36:56.922Z,2.69
2019-01-04T10:39:23.825Z,2.69
2019-01-04T10:41:50.762Z,3.00
2019-01-04T10:44:18.255Z,3.19
2019-01-04T10:46:45.401Z,3.06
2019-01-04T10:49:12.385Z,2.94
2019-01-04T10:51:39.329Z,2.87
2019-01-04T10:54:06.289Z,2.81
2019-01-04T10:56:33.217Z,3.00
2019-01-04T10:59:00.155Z,2.87
2019-01-04T11:01:27.090Z,3.12
2019-01-04T11:03:54.650Z,2.87
2019-01-04T11:06:21.678Z,3.12
2019-01-04T11:08:48.915Z,3.12
2019-01-04T11:11:16.074Z,3.25
2019-01-04T11:13:43.064Z,3.12
2019-01-04T11:16:10.050Z,2.87
2019-01-04T11:18:37.058Z,3.00
2019-01-04T11:21:06.530Z,3.25
2019-01-04T11:23:45.744Z,3.31
2019-01-04T11:26:21.924Z,3.00
2019-01-04T11:28:58.039Z,3.31
2019-01-04T11:31:33.530Z,3.19
2019-01-04T11:34:12.101Z,3.25
2019-01-04T11:36:58.769Z,3.19
2019-01-04T11:39:31.536Z,3.31
2019-01-04T11:42:39.591Z,3.19
2019-01-04T11:45:29.925Z,3.25
2019-01-04T11:48:10.185Z,3.06
2019-01-04T11:51:00.698Z,3.31
2019-01-04T11:53:27.847Z,3.31
2019-01-04T11:55:55.374Z,3.37
2019-01-04T11:58:22.444Z,3.25
2019-01-04T12:00:50.207Z,3.25
2019-01-04T12:03:17.148Z,3.19
2019-01-04T12:05:44.187Z,3.37
2019-01-04T12:08:11.669Z,3.19
2019-01-04T12:10:38.650Z,3.56
2019-01-04T12:13:05.694Z,3.25
2019-01-04T12:15:32.641Z,3.31
2019-01-04T12:17:59.628Z,3.25
2019-01-04T12:20:26.576Z,3.12
2019-01-04T12:22:53.601Z,3.44
2019-01-04T12:25:20.596Z,3.50
2019-01-04T12:27:47.559Z,3.31
2019-01-04T12:30:14.539Z,3.50
2019-01-04T12:32:41.535Z,3.50
2019-01-04T12:35:08.534Z,3.56
2019-01-04T12:37:35.509Z,3.25
2019-01-04T12:40:02.515Z,3.31
2019-01-04T12:42:29.539Z,3.50
2019-01-04T12:44:56.742Z,3.12
2019-01-04T12:47:23.712Z,3.37
2019-01-04T12:49:50.766Z,3.12
2019-01-04T12:52:17.837Z,3.37
2019-01-04T12:54:44.874Z,3.50
2019-01-04T12:57:12.164Z,3.50
2019-01-04T12:59:39.188Z,3.44
2019-01-04T13:02:06.240Z,3.37
2019-01-04T13:04:33.322Z,3.37
2019-01-04T13:07:00.261Z,3.44
2019-01-04T13:12:39.275Z,3.31
2019-01-04T13:15:06.475Z,3.25
2019-01-04T13:17:34.253Z,3.31
2019-01-04T13:20:01.295Z,3.37
2019-01-04T13:22:28.255Z,3.44
2019-01-04T13:24:55.245Z,3.50
2019-01-04T13:27:22.665Z,3.50
2019-01-04T13:29:49.222Z,3.75
2019-01-04T13:32:16.231Z,3.62
2019-01-04T13:34:43.318Z,3.44
2019-01-04T13:37:10.266Z,3.50
2019-01-04T13:39:37.261Z,3.44
2019-01-04T13:42:05.250Z,3.69
2019-01-04T13:44:32.241Z,3.62
2019-01-04T13:46:59.246Z,3.75
2019-01-04T13:49:26.309Z,3.62
2019-01-04T13:51:53.254Z,3.56
2019-01-04T13:54:20.217Z,3.75
2019-01-04T13:56:47.213Z,3.56
2019-01-04T13:59:14.199Z,3.62
2019-01-04T14:01:41.722Z,3.69
2019-01-04T14:04:08.682Z,3.62
2019-01-04T14:06:35.742Z,3.87
2019-01-04T14:09:03.388Z,3.81
2019-01-04T14:11:30.329Z,3.75
2019-01-04T14:13:57.347Z,3.62
2019-01-04T14:16:24.309Z,3.62
2019-01-04T14:18:51.294Z,3.69
2019-01-04T14:21:18.340Z,3.69
2019-01-04T14:23:45.368Z,3.87
2019-01-04T14:26:12.329Z,3.87
2019-01-04T14:28:39.340Z,3.87
2019-01-04T14:31:06.293Z,3.75
2019-01-04T14:33:33.242Z,3.87
2019-01-04T14:36:00.218Z,3.81
2019-01-04T14:38:27.333Z,3.87
2019-01-04T14:40:54.429Z,3.62
2019-01-04T14:43:21.348Z,3.69
2019-01-04T14:45:48.385Z,3.81
2019-01-04T14:48:15.407Z,3.62
2019-01-04T14:50:42.469Z,3.50
2019-01-04T14:53:09.502Z,3.50
2019-01-04T14:55:36.472Z,3.75
2019-01-04T14:58:03.558Z,3.56
2019-01-04T15:00:30.566Z,3.69
2019-01-04T15:02:57.666Z,3.69
2019-01-04T15:05:24.727Z,3.94
2019-01-04T15:07:51.687Z,3.94
2019-01-04T15:10:18.672Z,3.62
2019-01-04T15:12:45.694Z,3.81
2019-01-04T15:15:12.663Z,3.81
2019-01-04T15:17:39.613Z,3.62
2019-01-04T15:20:08.919Z,3.62
2019-01-04T15:22:35.964Z,3.69
2019-01-04T15:25:03.193Z,3.94
2019-01-04T15:27:30.811Z,3.62
2019-01-04T15:29:57.878Z,3.81
2019-01-04T15:32:24.946Z,3.87
2019-01-04T15:34:52.009Z,3.87
2019-01-04T15:37:18.985Z,3.87
2019-01-04T15:39:46.976Z,3.81
2019-01-04T15:42:13.069Z,3.62
2019-01-04T15:44:40.080Z,3.75
2019-01-04T15:47:07.068Z,3.75
2019-01-04T15:49:33.991Z,3.87
2019-01-04T15:52:00.942Z,3.94
2019-01-04T15:54:27.970Z,3.94
2019-01-04T15:56:54.966Z,3.87
2019-01-04T15:59:22.031Z,4.06
2019-01-04T16:01:49.014Z,4.06
2019-01-04T16:04:16.042Z,4.06
2019-01-04T16:06:43.096Z,4.19
2019-01-04T16:09:10.112Z,4.12
2019-01-04T16:11:37.210Z,4.06
2019-01-04T16:14:04.207Z,4.19
2019-01-04T16:16:31.210Z,4.00
2019-01-04T16:18:58.446Z,3.94
2019-01-04T16:21:25.489Z,4.25
2019-01-04T16:23:52.457Z,4.12
2019-01-04T16:26:19.479Z,4.19
2019-01-04T16:28:46.427Z,4.19
2019-01-04T16:31:13.469Z,4.31
2019-01-04T16:33:40.483Z,4.19
2019-01-04T16:36:07.563Z,4.19
2019-01-04T16:38:34.558Z,4.25
2019-01-04T16:41:01.571Z,4.25
2019-01-04T16:43:28.658Z,4.25
2019-01-04T16:45:55.675Z,4.25
2019-01-04T16:48:22.710Z,4.12
2019-01-04T16:50:49.750Z,4.25
2019-01-04T16:53:17.972Z,4.37
2019-01-04T16:55:47.609Z,4.12
2019-01-04T16:58:14.597Z,4.19
2019-01-04T17:00:41.630Z,4.56
2019-01-04T17:03:08.721Z,4.50
2019-01-04T17:05:35.870Z,4.50
2019-01-04T17:08:02.907Z,4.31
2019-01-04T17:10:30.578Z,4.25
2019-01-04T17:12:57.681Z,4.62
2019-01-04T17:15:24.691Z,4.56
2019-01-04T17:17:51.697Z,4.50
2019-01-04T17:20:18.779Z,4.25
2019-01-04T17:22:45.895Z,4.19
2019-01-04T17:25:12.956Z,4.44
2019-01-04T17:27:39.994Z,4.62
2019-01-04T17:30:07.832Z,4.12
2019-01-04T17:32:34.869Z,4.25
2019-01-04T17:35:01.843Z,4.37
2019-01-04T17:37:28.861Z,4.56
2019-01-04T17:39:55.833Z,4.62
2019-01-04T17:42:22.830Z,4.69
2019-01-04T17:44:49.836Z,4.31
2019-01-04T17:47:17.748Z,4.31
2019-01-04T17:49:45.548Z,4.37
2019-01-04T17:52:12.531Z,4.50
2019-01-04T17:54:39.599Z,4.44
2019-01-04T17:57:06.750Z,4.56
2019-01-04T17:59:33.799Z,4.37
2019-01-04T18:02:00.831Z,4.37
2019-01-04T18:04:27.967Z,4.25
2019-01-04T18:06:55.054Z,4.44
2019-01-04T18:09:22.103Z,4.62
2019-01-04T18:11:49.178Z,4.56
2019-01-04T18:14:16.251Z,4.56
2019-01-04T18:16:43.325Z,4.44
2019-01-04T18:19:10.962Z,4.69
2019-01-04T18:21:38.160Z,4.19
2019-01-04T18:24:06.057Z,4.31
2019-01-04T18:26:33.610Z,4.31
2019-01-04T18:29:02.348Z,4.37
2019-01-04T18:31:39.002Z,4.19
2019-01-04T18:34:09.207Z,4.56
2019-01-04T18:36:36.315Z,4.31
2019-01-04T18:39:04.242Z,4.62
2019-01-04T18:41:31.314Z,4.50
2019-01-04T18:43:58.870Z,4.56
2019-01-04T18:46:26.213Z,4.69
2019-01-04T18:48:53.320Z,4.81
2019-01-04T18:51:20.379Z,4.62
2019-01-04T18:53:47.833Z,4.81
2019-01-04T18:56:17.889Z,4.62
2019-01-04T18:58:45.147Z,4.75
2019-01-04T19:01:13.766Z,4.44
2019-01-04T19:03:39.360Z,4.69
2019-01-04T19:06:07.220Z,4.56
2019-01-04T19:08:34.350Z,4.81
2019-01-04T19:11:02.112Z,4.44
2019-01-04T19:13:29.338Z,4.62
2019-01-04T19:15:56.408Z,4.50
2019-01-04T19:18:23.438Z,4.62
2019-01-04T19:20:50.585Z,4.56
2019-01-04T19:23:17.693Z,4.44
2019-01-04T19:25:44.732Z,4.62
2019-01-04T19:28:11.790Z,4.37
2019-01-04T19:30:38.853Z,4.56
2019-01-04T19:33:05.877Z,4.69
2019-01-04T19:35:33.549Z,4.62
2019-01-04T19:38:00.661Z,4.56
2019-01-04T19:40:27.732Z,4.37
2019-01-04T19:42:54.737Z,4.44
2019-01-04T19:45:21.778Z,4.25
2019-01-04T19:47:49.379Z,4.62
2019-01-04T19:50:20.911Z,4.69
2019-01-04T19:52:48.194Z,4.37
2019-01-04T19:55:15.282Z,4.69
2019-01-04T19:57:42.464Z,4.56
2019-01-04T20:00:09.531Z,4.50
2019-01-04T20:02:37.670Z,4.75
2019-01-04T20:05:04.772Z,4.50
2019-01-04T20:08:10.770Z,4.56
2019-01-04T20:10:53.857Z,4.56
2019-01-04T20:16:46.998Z,4.62
2019-01-04T20:19:20.076Z,4.62
2019-01-04T20:21:52.537Z,4.56
2019-01-04T20:24:31.273Z,4.50
2019-01-04T20:28:04.457Z,4.75
2019-01-04T20:31:09.483Z,4.56
2019-01-04T20:33:52.757Z,4.75
2019-01-04T20:36:33.404Z,4.75
2019-01-04T20:39:10.072Z,4.75
2019-01-04T20:41:46.823Z,4.62
2019-01-04T20:44:20.524Z,4.69
2019-01-04T20:47:09.775Z,4.69
2019-01-04T20:49:41.550Z,4.75
2019-01-04T20:52:14.616Z,4.94
2019-01-04T20:55:45.330Z,4.87
2019-01-04T21:00:24.179Z,4.62
2019-01-04T21:02:57.089Z,4.75
2019-01-04T21:05:29.743Z,5.00
2019-01-04T21:08:02.257Z,5.06
2019-01-04T21:10:35.858Z,5.06
2019-01-04T21:13:07.537Z,5.19
2019-01-04T21:15:41.127Z,5.00
2019-01-04T21:18:16.803Z,5.06
2019-01-04T21:20:49.888Z,5.12
2019-01-04T21:23:41.981Z,5.12
2019-01-04T21:26:14.621Z,5.25
2019-01-04T21:28:47.332Z,5.37
2019-01-04T21:31:20.156Z,5.00
2019-01-04T21:33:53.097Z,5.12
2019-01-04T21:36:26.724Z,5.31
2019-01-04T21:38:59.332Z,5.12
2019-01-04T21:41:34.897Z,5.37
2019-01-04T21:44:10.430Z,5.44
2019-01-04T21:46:49.950Z,5.25
2019-01-04T21:49:56.984Z,5.44
2019-01-04T21:52:30.245Z,5.50
2019-01-04T21:57:08.066Z,5.37
2019-01-04T21:59:40.803Z,5.44
2019-01-04T22:02:24.330Z,5.44
2019-01-04T22:04:59.123Z,5.50
2019-01-04T22:07:31.907Z,5.56
2019-01-04T22:10:04.512Z,5.37
2019-01-04T22:16:55.175Z,5.44
2019-01-04T22:19:27.938Z,5.37
2019-01-04T22:22:00.619Z,5.44
2019-01-04T22:24:33.183Z,5.37
2019-01-04T22:27:09.941Z,5.56
2019-01-04T22:29:41.632Z,5.56
2019-01-04T22:32:15.153Z,5.50
2019-01-04T22:34:50.973Z,5.50
2019-01-04T22:39:27.859Z,5.69
2019-01-04T22:42:02.395Z,5.50
2019-01-04T22:45:34.545Z,5.62
2019-01-04T22:48:07.133Z,5.56
2019-01-04T22:50:40.093Z,5.62
2019-01-04T22:53:11.781Z,5.75
2019-01-04T22:56:43.058Z,5.75
2019-01-04T22:59:19.749Z,5.56
2019-01-04T23:02:56.102Z,5.56
2019-01-04T23:05:29.216Z,5.69
2019-01-04T23:08:20.486Z,5.69
2019-01-04T23:11:01.750Z,5.62
2019-01-04T23:13:34.810Z,5.50
2019-01-04T23:16:09.334Z,5.69
2019-01-04T23:18:57.650Z,5.75
2019-01-04T23:21:42.289Z,5.69
2019-01-04T23:24:17.485Z,5.62
2019-01-04T23:26:49.049Z,5.87
2019-01-04T23:29:27.025Z,5.69
2019-01-04T23:32:22.474Z,5.87
2019-01-04T23:34:55.183Z,5.87
2019-01-04T23:37:27.961Z,5.94
2019-01-04T23:41:01.357Z,5.87
2019-01-04T23:44:04.103Z,5.81
2019-01-04T23:46:40.309Z,5.81
2019-01-04T23:49:12.045Z,5.87
2019-01-04T23:51:46.481Z,6.00
2019-01-04T23:55:19.833Z,5.87
2019-01-04T23:57:52.616Z,5.87
